Time;durP1;ratioP1;P1;durP2;ratioP2;P2;SDS_P1;SDS_P2;PMS_P1;PMS_P2;Temp;Humidity;BMP_temperature;BMP_pressure;BME280_temperature;BME280_humidity;BME280_pressure;Samples;Min_cycle;Max_cycle;Signal;HPM_P1;HPM_P2
2021/01/05 00:00:33;;;;;;;30.67;19.27;;;2.90;99.90;;;;;;5018977;28;20121;-79
2021/01/05 00:03:00;;;;;;;27.85;18.48;;;2.90;99.90;;;;;;5013817;28;20050;-79
2021/01/05 00:05:27;;;;;;;27.88;18.55;;;3.00;99.90;;;;;;5000912;28;20479;-80
2021/01/05 00:07:53;;;;;;;31.02;19.83;;;3.00;99.90;;;;;;5016550;28;20129;-79
2021/01/05 00:10:20;;;;;;;29.73;18.90;;;3.00;99.90;;;;;;5015504;28;20463;-78
2021/01/05 00:12:47;;;;;;;30.60;19.38;;;2.90;99.90;;;;;;5016735;28;20528;-78
2021/01/05 00:15:15;;;;;;;28.85;18.98;;;2.90;99.90;;;;;;5018918;28;20136;-79
2021/01/05 00:17:41;;;;;;;28.30;18.75;;;2.90;99.90;;;;;;5017535;28;20045;-79
2021/01/05 00:20:13;;;;;;;30.38;19.48;;;2.90;99.90;;;;;;5020256;28;20137;-81
2021/01/05 00:22:39;;;;;;;28.20;17.95;;;2.90;99.90;;;;;;5021176;28;20089;-80
2021/01/05 00:25:07;;;;;;;31.55;19.85;;;2.90;99.90;;;;;;5020858;28;20114;-80
2021/01/05 00:27:34;;;;;;;31.13;19.67;;;2.80;99.90;;;;;;5021084;28;20085;-81
2021/01/05 00:30:02;;;;;;;30.13;19.00;;;2.80;99.90;;;;;;5021698;28;20057;-81
2021/01/05 00:32:29;;;;;;;28.05;19.08;;;2.90;99.90;;;;;;5021593;28;20050;-81
2021/01/05 00:34:55;;;;;;;30.80;19.50;;;3.00;99.90;;;;;;5021264;28;20100;-81
2021/01/05 00:37:22;;;;;;;30.25;19.40;;;2.90;99.90;;;;;;5019616;28;20106;-80
2021/01/05 00:39:49;;;;;;;29.08;18.65;;;2.90;99.90;;;;;;5020243;28;20088;-80
2021/01/05 00:42:16;;;;;;;28.52;18.90;;;3.00;99.90;;;;;;5020215;28;20068;-80
2021/01/05 00:44:42;;;;;;;33.25;20.40;;;3.00;99.90;;;;;;5020422;28;20076;-80
2021/01/05 00:47:08;;;;;;;28.70;19.27;;;3.00;99.90;;;;;;5020345;28;20081;-81
2021/01/05 00:49:35;;;;;;;27.92;18.33;;;3.00;99.90;;;;;;5020982;28;20093;-80
2021/01/05 00:52:01;;;;;;;30.58;19.75;;;3.00;99.90;;;;;;5020544;28;20104;-78
2021/01/05 00:54:28;;;;;;;28.17;18.70;;;3.10;99.90;;;;;;5021633;28;20100;-80
2021/01/05 00:57:03;;;;;;;29.05;18.98;;;3.10;99.90;;;;;;5020383;28;20061;-81
2021/01/05 00:59:29;;;;;;;30.13;18.17;;;3.00;99.90;;;;;;5025904;28;20081;-79
2021/01/05 01:01:57;;;;;;;31.48;18.92;;;3.10;99.90;;;;;;5030402;28;20084;-79
2021/01/05 01:04:24;;;;;;;27.88;17.20;;;3.00;99.90;;;;;;5031421;28;20054;-79
2021/01/05 01:06:50;;;;;;;30.52;18.88;;;3.00;99.90;;;;;;5020900;28;20092;-79
2021/01/05 01:09:16;;;;;;;28.13;18.00;;;3.00;99.90;;;;;;5019733;28;20137;-79
2021/01/05 01:12:00;;;;;;;28.90;19.05;;;3.00;99.90;;;;;;5021609;28;20092;-79
2021/01/05 01:14:27;;;;;;;30.15;18.70;;;3.00;99.90;;;;;;5021391;28;20068;-79
2021/01/05 01:16:53;;;;;;;28.83;19.20;;;3.00;99.90;;;;;;5023222;28;20137;-80
2021/01/05 01:19:20;;;;;;;30.00;19.65;;;2.90;99.90;;;;;;5023635;28;20088;-78
2021/01/05 01:21:48;;;;;;;29.67;18.45;;;3.00;99.90;;;;;;5024022;28;20092;-78
2021/01/05 01:24:15;;;;;;;28.25;17.65;;;3.10;99.90;;;;;;5025562;28;20049;-79
2021/01/05 01:26:42;;;;;;;28.23;17.88;;;3.10;99.90;;;;;;5027131;28;20073;-79
2021/01/05 01:29:09;;;;;;;28.88;18.33;;;3.00;99.90;;;;;;5024855;28;20192;-79
2021/01/05 01:31:35;;;;;;;28.85;19.02;;;3.00;99.90;;;;;;5021650;28;20128;-79
2021/01/05 01:34:02;;;;;;;28.80;18.40;;;3.00;99.90;;;;;;5022287;28;20136;-79
2021/01/05 01:36:28;;;;;;;29.52;18.38;;;3.00;99.90;;;;;;5022771;28;20129;-80
2021/01/05 01:38:54;;;;;;;29.42;19.00;;;3.00;99.90;;;;;;5020826;28;20124;-78
2021/01/05 01:41:21;;;;;;;28.85;18.60;;;3.10;99.90;;;;;;5020647;28;20050;-79
2021/01/05 01:43:47;;;;;;;29.20;18.98;;;3.10;99.90;;;;;;5022308;28;20081;-81
2021/01/05 01:46:15;;;;;;;31.27;19.02;;;3.10;99.90;;;;;;5025212;28;20465;-81
2021/01/05 01:48:42;;;;;;;29.70;19.30;;;3.20;99.90;;;;;;5025829;28;20085;-81
2021/01/05 01:51:11;;;;;;;30.83;19.25;;;3.20;99.90;;;;;;5026039;28;20430;-80
2021/01/05 01:54:06;;;;;;;29.30;19.23;;;3.30;99.90;;;;;;5025337;28;20088;-81
2021/01/05 01:57:01;;;;;;;29.98;18.77;;;3.30;99.90;;;;;;5022555;28;20144;-80
2021/01/05 01:59:59;;;;;;;29.90;18.85;;;3.20;99.90;;;;;;5025140;28;20085;-80
2021/01/05 02:02:43;;;;;;;29.95;19.70;;;3.10;99.90;;;;;;5010433;28;20296;-81
2021/01/05 02:05:14;;;;;;;31.85;20.02;;;3.10;99.90;;;;;;5026534;28;20046;-81
2021/01/05 02:07:50;;;;;;;31.58;19.55;;;3.10;99.90;;;;;;5024450;28;20119;-80
2021/01/05 02:10:56;;;;;;;29.73;18.50;;;3.10;99.90;;;;;;5024221;28;20046;-80
2021/01/05 02:13:38;;;;;;;32.03;19.23;;;3.00;99.90;;;;;;4959194;29;20130;-79
2021/01/05 02:16:28;;;;;;;29.38;18.92;;;3.00;99.90;;;;;;5012545;28;20073;-80
2021/01/05 02:18:59;;;;;;;31.42;19.80;;;3.00;99.90;;;;;;5027284;28;20081;-80
2021/01/05 02:21:29;;;;;;;32.58;20.88;;;3.00;99.90;;;;;;5022809;28;20131;-80
2021/01/05 02:24:13;;;;;;;30.30;19.30;;;3.00;99.90;;;;;;5021994;28;20084;-81
2021/01/05 02:26:46;;;;;;;30.83;19.45;;;3.10;99.90;;;;;;5023968;28;20053;-81
2021/01/05 02:29:19;;;;;;;31.45;18.95;;;3.10;99.90;;;;;;5021333;28;20113;-79
2021/01/05 02:31:56;;;;;;;33.83;20.95;;;3.10;99.90;;;;;;5020874;28;20395;-80
2021/01/05 02:34:38;;;;;;;33.05;20.63;;;3.00;99.90;;;;;;5030902;28;20073;-81
2021/01/05 02:37:22;;;;;;;33.08;20.55;;;3.00;99.90;;;;;;5022341;28;20081;-80
2021/01/05 02:40:28;;;;;;;31.65;19.60;;;3.00;99.90;;;;;;5021787;28;20110;-80
2021/01/05 02:43:23;;;;;;;34.22;20.52;;;3.00;99.90;;;;;;5021532;28;20049;-80
2021/01/05 02:46:26;;;;;;;28.60;18.42;;;2.90;99.90;;;;;;5019898;28;20414;-79
2021/01/05 02:49:08;;;;;;;34.67;20.87;;;2.90;99.90;;;;;;5020884;28;20077;-79
2021/01/05 02:52:13;;;;;;;32.17;20.42;;;2.90;99.90;;;;;;5021292;28;20380;-79
2021/01/05 02:55:17;;;;;;;32.30;20.08;;;2.90;99.90;;;;;;4988519;28;20105;-80
2021/01/05 02:57:59;;;;;;;35.67;20.67;;;2.90;99.90;;;;;;5021145;28;20141;-79
2021/01/05 03:01:29;;;;;;;32.80;19.67;;;2.90;99.90;;;;;;5020643;28;20128;-80
2021/01/05 03:03:55;;;;;;;33.35;19.27;;;2.90;99.90;;;;;;5018401;28;20320;-79
2021/01/05 03:06:33;;;;;;;32.35;20.35;;;2.90;99.90;;;;;;5018357;28;20184;-79
2021/01/05 03:09:26;;;;;;;32.45;19.60;;;2.90;99.90;;;;;;5018481;28;20109;-80
2021/01/05 03:12:07;;;;;;;34.72;20.17;;;3.00;99.90;;;;;;5019489;28;20370;-81
2021/01/05 03:14:40;;;;;;;34.47;20.27;;;3.00;99.90;;;;;;5020954;28;20136;-81
2021/01/05 03:17:20;;;;;;;32.28;18.80;;;3.00;99.90;;;;;;5020471;28;20104;-82
2021/01/05 03:19:56;;;;;;;32.42;19.65;;;3.00;99.90;;;;;;5019341;28;20129;-81
2021/01/05 03:22:27;;;;;;;33.92;20.70;;;3.00;99.90;;;;;;5020167;28;20081;-81
2021/01/05 03:24:56;;;;;;;36.33;20.73;;;3.00;99.90;;;;;;5020828;28;20108;-80
2021/01/05 03:27:23;;;;;;;31.10;18.92;;;3.00;99.90;;;;;;5020603;28;20050;-81
2021/01/05 03:29:54;;;;;;;33.45;19.55;;;3.00;99.90;;;;;;5020989;28;20073;-82
2021/01/05 03:32:21;;;;;;;32.00;19.60;;;3.00;99.90;;;;;;5020308;28;20140;-82
2021/01/05 03:34:47;;;;;;;34.78;20.60;;;3.00;99.90;;;;;;5019135;28;20077;-81
2021/01/05 03:37:13;;;;;;;29.90;18.67;;;3.00;99.90;;;;;;5021179;28;20113;-82
2021/01/05 03:39:40;;;;;;;31.55;20.58;;;3.00;99.90;;;;;;5022358;28;20565;-82
2021/01/05 03:42:07;;;;;;;32.88;19.55;;;3.00;99.90;;;;;;5021373;28;20725;-82
2021/01/05 03:44:34;;;;;;;33.60;19.50;;;3.10;99.90;;;;;;5021566;28;20089;-82
2021/01/05 03:47:01;;;;;;;31.88;18.85;;;3.00;99.90;;;;;;5020896;28;20050;-82
2021/01/05 03:49:28;;;;;;;33.20;19.48;;;3.00;99.90;;;;;;5021758;28;20099;-80
2021/01/05 03:51:54;;;;;;;31.15;20.75;;;3.00;99.90;;;;;;5018624;28;20132;-81
2021/01/05 03:54:22;;;;;;;32.45;19.38;;;3.00;99.90;;;;;;5020218;28;20089;-81
2021/01/05 03:56:49;;;;;;;33.22;19.65;;;3.10;99.90;;;;;;5018248;28;20054;-79
2021/01/05 03:59:15;;;;;;;29.80;19.05;;;3.10;99.90;;;;;;5015596;28;20054;-78
2021/01/05 04:01:50;;;;;;;33.05;19.23;;;3.10;99.90;;;;;;5014533;28;20136;-81
2021/01/05 04:04:16;;;;;;;33.05;19.58;;;3.10;99.90;;;;;;5014990;28;20050;-80
2021/01/05 04:06:43;;;;;;;31.00;18.73;;;3.10;99.90;;;;;;5015127;28;20137;-81
2021/01/05 04:09:10;;;;;;;33.90;20.23;;;3.00;99.90;;;;;;5018046;28;20129;-81
2021/01/05 04:11:36;;;;;;;33.42;20.35;;;3.00;99.90;;;;;;5018808;28;20081;-81
2021/01/05 04:14:03;;;;;;;34.20;20.20;;;3.00;99.90;;;;;;5018790;28;20076;-82
2021/01/05 04:16:29;;;;;;;31.05;18.38;;;3.00;99.90;;;;;;5019554;28;20100;-81
2021/01/05 04:18:55;;;;;;;33.65;20.35;;;3.00;99.90;;;;;;5018834;28;20129;-81
2021/01/05 04:21:22;;;;;;;31.45;19.75;;;3.00;99.90;;;;;;5019283;28;20137;-81
2021/01/05 04:23:49;;;;;;;33.83;20.02;;;3.00;99.90;;;;;;5020681;28;20726;-82
2021/01/05 04:26:15;;;;;;;32.55;20.05;;;3.00;99.90;;;;;;5019010;28;20105;-82
2021/01/05 04:28:42;;;;;;;30.88;18.75;;;3.00;99.90;;;;;;5021383;28;20069;-82
2021/01/05 04:31:08;;;;;;;32.83;19.98;;;3.10;99.90;;;;;;5020805;28;20128;-82
2021/01/05 04:33:34;;;;;;;33.03;20.38;;;3.00;99.90;;;;;;5019884;28;20077;-81
2021/01/05 04:36:01;;;;;;;33.83;20.17;;;3.00;99.90;;;;;;5019053;28;20706;-81
2021/01/05 04:38:27;;;;;;;32.60;20.77;;;3.00;99.90;;;;;;5021723;28;20141;-82
2021/01/05 04:40:55;;;;;;;34.92;20.30;;;3.10;99.90;;;;;;5018351;28;20060;-80
2021/01/05 04:43:34;;;;;;;33.50;20.73;;;3.10;99.90;;;;;;5016466;28;20136;-80
2021/01/05 04:46:17;;;;;;;36.63;20.35;;;3.10;99.90;;;;;;5019285;28;20084;-81
2021/01/05 04:48:47;;;;;;;;;;;3.10;99.90;;;;;;5019666;28;20081;-81
2021/01/05 04:51:20;;;;;;;34.10;19.25;;;3.20;99.90;;;;;;5018485;28;19979;-80
2021/01/05 04:53:51;;;;;;;37.28;21.95;;;3.20;99.90;;;;;;5016913;28;20093;-80
2021/01/05 04:56:22;;;;;;;32.13;19.48;;;3.00;99.90;;;;;;5017728;28;20077;-83
2021/01/05 04:58:53;;;;;;;36.65;20.73;;;3.10;99.90;;;;;;5017367;28;20073;-80
2021/01/05 05:01:25;;;;;;;35.38;20.75;;;3.00;99.90;;;;;;5020322;28;20085;-81
2021/01/05 05:04:06;;;;;;;35.55;21.48;;;3.00;99.90;;;;;;5020401;28;20136;-82
2021/01/05 05:06:40;;;;;;;35.97;21.35;;;3.00;99.90;;;;;;5019313;28;20081;-83
2021/01/05 05:09:28;;;;;;;34.63;20.35;;;3.00;99.90;;;;;;5017759;28;20077;-82
2021/01/05 05:12:07;;;;;;;35.00;20.70;;;3.00;99.90;;;;;;5018371;28;20114;-80
2021/01/05 05:14:45;;;;;;;37.90;21.45;;;3.00;99.90;;;;;;5017027;28;20497;-80
2021/01/05 05:17:43;;;;;;;38.88;22.60;;;3.00;99.90;;;;;;5014666;28;20137;-79
2021/01/05 05:20:39;;;;;;;34.50;19.65;;;3.00;99.90;;;;;;4997170;28;20050;-83
2021/01/05 05:23:31;;;;;;;38.17;21.30;;;3.00;99.90;;;;;;5017944;28;20050;-82
2021/01/05 05:26:06;;;;;;;36.88;21.10;;;3.00;99.90;;;;;;5018492;28;20189;-81
2021/01/05 05:28:41;;;;;;;34.00;20.10;;;3.10;99.90;;;;;;5017734;28;20050;-81
2021/01/05 05:31:16;;;;;;;34.53;20.67;;;3.10;99.90;;;;;;5015352;28;20129;-79
2021/01/05 05:33:43;;;;;;;37.38;21.40;;;3.10;99.90;;;;;;5013850;28;20180;-80
2021/01/05 05:36:29;;;;;;;38.30;22.30;;;3.10;99.90;;;;;;5013702;28;20502;-78
2021/01/05 05:39:22;;;;;;;37.10;22.08;;;3.10;99.90;;;;;;5012531;28;20125;-79
2021/01/05 05:41:57;;;;;;;38.03;21.92;;;3.10;99.90;;;;;;5012634;28;20089;-79
2021/01/05 05:44:29;;;;;;;37.20;21.13;;;3.10;99.90;;;;;;5012720;28;20502;-79
2021/01/05 05:47:04;;;;;;;37.80;21.70;;;3.00;99.90;;;;;;5000699;28;20490;-79
2021/01/05 05:49:43;;;;;;;38.10;21.85;;;3.10;99.90;;;;;;4992797;28;20473;-80
2021/01/05 05:52:22;;;;;;;36.58;21.52;;;3.00;99.90;;;;;;5011610;28;20050;-79
2021/01/05 05:54:49;;;;;;;40.80;21.95;;;3.00;99.90;;;;;;5014489;28;20756;-80
2021/01/05 05:57:31;;;;;;;39.35;22.17;;;3.10;99.90;;;;;;5014702;28;20113;-80
2021/01/05 06:00:10;;;;;;;39.42;21.30;;;3.10;99.90;;;;;;5016773;28;20128;-82
2021/01/05 06:02:37;;;;;;;35.05;19.80;;;3.10;99.90;;;;;;4996776;28;20183;-75
2021/01/05 06:05:18;;;;;;;35.60;21.27;;;3.10;99.90;;;;;;4998230;28;20089;-82
2021/01/05 06:07:45;;;;;;;39.55;22.25;;;3.20;99.90;;;;;;4997771;28;20058;-82
2021/01/05 06:10:12;;;;;;;37.15;21.15;;;3.20;99.90;;;;;;4997769;28;20105;-80
2021/01/05 06:12:38;;;;;;;36.95;20.88;;;3.20;99.90;;;;;;4997781;28;20062;-80
2021/01/05 06:15:07;;;;;;;38.00;21.13;;;3.20;99.90;;;;;;4998534;28;20526;-80
2021/01/05 06:17:33;;;;;;;35.95;20.60;;;3.20;99.90;;;;;;4997808;28;20137;-79
2021/01/05 06:20:00;;;;;;;35.60;21.42;;;3.10;99.90;;;;;;4997188;28;20086;-79
2021/01/05 06:22:26;;;;;;;34.42;19.90;;;3.10;99.90;;;;;;4998015;28;20511;-80
2021/01/05 06:24:52;;;;;;;35.90;20.63;;;3.20;99.90;;;;;;4998607;28;20054;-82
2021/01/05 06:29:57;;;;;;;36.28;20.80;;;3.10;99.90;;;;;;4461325;23;20529;-79
2021/01/05 06:32:31;;;;;;;35.35;21.08;;;3.10;99.90;;;;;;5018698;28;20533;-78
2021/01/05 06:35:00;;;;;;;37.95;21.92;;;3.20;99.90;;;;;;5019977;28;20077;-81
2021/01/05 06:37:27;;;;;;;33.78;20.35;;;3.10;99.90;;;;;;5022359;28;20049;-79
2021/01/05 06:39:53;;;;;;;36.63;20.85;;;3.10;99.90;;;;;;5021213;28;20050;-79
2021/01/05 06:42:20;;;;;;;37.25;20.83;;;3.20;99.90;;;;;;5032827;23;20050;-80
2021/01/05 06:44:46;;;;;;;35.45;20.40;;;3.30;99.90;;;;;;5017097;28;20061;-79
2021/01/05 06:47:13;;;;;;;39.50;21.27;;;3.20;99.90;;;;;;5006951;28;20050;-79
2021/01/05 06:49:42;;;;;;;32.88;19.92;;;3.20;99.90;;;;;;5008324;28;20042;-79
2021/01/05 06:52:09;;;;;;;38.17;20.65;;;3.20;99.90;;;;;;4993485;28;20078;-79
2021/01/05 06:54:35;;;;;;;35.28;20.35;;;3.20;99.90;;;;;;4987470;28;20085;-79
2021/01/05 06:57:02;;;;;;;34.30;19.90;;;3.20;99.90;;;;;;4985945;28;20059;-80
2021/01/05 06:59:28;;;;;;;36.00;20.05;;;3.20;99.90;;;;;;4991436;28;20057;-80
2021/01/05 07:01:59;;;;;;;36.53;20.35;;;3.20;99.90;;;;;;4994065;28;20094;-81
2021/01/05 07:04:25;;;;;;;37.03;20.75;;;3.20;99.90;;;;;;4988409;28;20069;-77
2021/01/05 07:06:53;;;;;;;36.65;21.05;;;3.20;99.90;;;;;;4989905;28;20110;-78
2021/01/05 07:09:21;;;;;;;36.47;19.63;;;3.20;99.90;;;;;;4993712;28;20050;-79
2021/01/05 07:11:48;;;;;;;37.47;19.63;;;3.20;99.90;;;;;;4994862;28;20082;-79
2021/01/05 07:14:16;;;;;;;37.50;21.08;;;3.20;99.90;;;;;;4994928;28;20047;-80
2021/01/05 07:16:43;;;;;;;36.72;20.65;;;3.20;99.90;;;;;;4995138;28;20051;-80
2021/01/05 07:19:09;;;;;;;37.33;20.30;;;3.20;99.90;;;;;;4994952;28;20523;-80
2021/01/05 07:21:36;;;;;;;32.90;19.88;;;3.20;99.90;;;;;;4993738;28;20055;-80
2021/01/05 07:24:04;;;;;;;33.72;18.55;;;3.10;99.90;;;;;;4994009;28;20055;-80
2021/01/05 07:26:32;;;;;;;37.08;20.75;;;3.10;99.90;;;;;;4993133;28;20057;-81
2021/01/05 07:28:59;;;;;;;35.40;20.58;;;3.10;99.90;;;;;;4993682;28;20051;-81
2021/01/05 07:31:25;;;;;;;35.08;20.00;;;3.10;99.90;;;;;;4994520;28;20157;-81
2021/01/05 07:33:52;;;;;;;35.50;20.92;;;3.20;99.90;;;;;;4995214;28;20061;-82
2021/01/05 07:36:24;;;;;;;36.53;20.33;;;3.20;99.90;;;;;;4994216;28;20055;-81
2021/01/05 07:38:51;;;;;;;36.65;19.95;;;3.30;99.90;;;;;;4995003;28;20050;-81
2021/01/05 07:41:19;;;;;;;36.30;20.08;;;3.40;99.90;;;;;;4993464;28;20047;-79
2021/01/05 07:43:45;;;;;;;34.45;19.73;;;3.30;99.90;;;;;;4990758;28;20086;-79
2021/01/05 07:46:11;;;;;;;37.03;20.40;;;3.50;99.90;;;;;;4990028;28;20061;-79
2021/01/05 07:48:38;;;;;;;33.60;19.92;;;3.50;99.90;;;;;;4990024;28;20047;-79
2021/01/05 07:51:06;;;;;;;38.72;20.83;;;3.50;99.90;;;;;;4987636;28;20117;-78
2021/01/05 07:53:32;;;;;;;36.25;21.48;;;3.50;99.90;;;;;;4987325;28;20062;-79
2021/01/05 07:55:59;;;;;;;35.05;20.63;;;3.50;99.90;;;;;;4985254;28;20061;-79
2021/01/05 07:58:26;;;;;;;39.72;20.42;;;3.60;99.90;;;;;;4982096;28;20047;-79
2021/01/05 08:00:53;;;;;;;36.17;20.30;;;3.60;99.90;;;;;;4979707;28;20499;-80
2021/01/05 08:03:20;;;;;;;34.10;19.95;;;3.60;99.90;;;;;;4987871;28;20069;-80
2021/01/05 08:05:47;;;;;;;35.25;20.00;;;3.60;99.90;;;;;;4989184;28;20128;-78
2021/01/05 08:08:14;;;;;;;36.65;20.75;;;3.60;99.90;;;;;;4989609;28;20051;-79
2021/01/05 08:10:41;;;;;;;34.25;20.30;;;3.60;99.90;;;;;;4984885;28;20397;-78
2021/01/05 08:13:10;;;;;;;34.30;19.50;;;3.70;99.90;;;;;;4976724;28;20078;-79
2021/01/05 08:15:37;;;;;;;35.05;20.08;;;3.60;99.90;;;;;;4976936;28;20067;-78
2021/01/05 08:18:06;;;;;;;36.63;21.02;;;3.70;99.90;;;;;;4977279;28;20129;-79
2021/01/05 08:20:33;;;;;;;38.78;21.50;;;3.70;99.90;;;;;;4977187;28;20050;-79
2021/01/05 08:23:01;;;;;;;39.63;19.90;;;3.60;99.90;;;;;;4978108;28;20046;-78
2021/01/05 08:25:29;;;;;;;35.58;20.50;;;3.60;99.90;;;;;;4978867;28;20051;-79
2021/01/05 08:27:55;;;;;;;34.70;21.42;;;3.70;99.90;;;;;;4978756;28;20162;-79
2021/01/05 08:30:23;;;;;;;34.92;20.65;;;3.70;99.90;;;;;;4977146;28;20058;-79
2021/01/05 08:32:52;;;;;;;33.47;18.90;;;3.70;99.90;;;;;;4977880;28;20078;-79
2021/01/05 08:35:21;;;;;;;34.75;19.05;;;3.70;99.90;;;;;;4977397;28;20047;-80
2021/01/05 08:37:47;;;;;;;34.45;19.83;;;3.70;99.90;;;;;;4976220;28;20137;-78
2021/01/05 08:40:17;;;;;;;34.95;20.02;;;3.70;99.90;;;;;;4985768;28;20051;-79
2021/01/05 08:42:43;;;;;;;31.98;18.23;;;3.70;99.90;;;;;;4988635;28;20427;-80
2021/01/05 08:45:11;;;;;;;33.65;19.83;;;3.70;99.90;;;;;;4980410;28;20405;-80
2021/01/05 08:47:37;;;;;;;32.92;18.17;;;3.60;99.90;;;;;;4975715;28;20126;-79
2021/01/05 08:50:08;;;;;;;31.88;17.92;;;3.60;99.90;;;;;;4978951;28;20118;-79
2021/01/05 08:52:34;;;;;;;37.03;19.40;;;3.50;99.90;;;;;;4981311;28;20054;-77
2021/01/05 08:55:01;;;;;;;35.20;18.80;;;3.50;99.90;;;;;;4984160;28;20082;-78
2021/01/05 08:57:27;;;;;;;34.40;19.67;;;3.60;99.90;;;;;;4982650;28;20106;-80
2021/01/05 08:59:53;;;;;;;31.95;18.30;;;3.60;99.90;;;;;;4981023;28;20070;-78
2021/01/05 09:02:20;;;;;;;33.50;19.95;;;3.50;99.90;;;;;;4984796;28;20089;-78
2021/01/05 09:04:46;;;;;;;31.70;18.30;;;3.50;99.90;;;;;;4984897;28;20086;-78
2021/01/05 09:07:18;;;;;;;34.22;18.80;;;3.50;99.90;;;;;;4985079;28;20054;-79
2021/01/05 09:09:45;;;;;;;33.17;18.88;;;3.50;99.90;;;;;;4987273;28;20078;-79
2021/01/05 09:12:11;;;;;;;34.67;19.73;;;3.60;99.90;;;;;;4989029;28;20058;-80
2021/01/05 09:14:37;;;;;;;35.38;19.92;;;3.60;99.90;;;;;;4987275;28;20062;-79
2021/01/05 09:17:04;;;;;;;32.88;17.55;;;3.60;99.90;;;;;;4983060;28;20051;-78
2021/01/05 09:19:31;;;;;;;34.47;20.30;;;3.60;99.90;;;;;;4978982;28;20616;-77
2021/01/05 09:21:58;;;;;;;34.55;19.65;;;3.60;99.90;;;;;;4976950;28;20107;-76
2021/01/05 09:24:25;;;;;;;36.45;20.65;;;3.70;99.90;;;;;;4979060;28;20090;-78
2021/01/05 09:26:56;;;;;;;35.47;19.45;;;3.60;99.90;;;;;;4979911;28;20101;-77
2021/01/05 09:29:23;;;;;;;35.67;19.77;;;3.70;99.90;;;;;;4977477;28;20097;-76
2021/01/05 09:31:51;;;;;;;33.45;19.50;;;3.70;99.90;;;;;;4975310;28;20129;-76
2021/01/05 09:34:20;;;;;;;37.00;20.48;;;3.70;99.90;;;;;;4978029;28;20047;-76
2021/01/05 09:36:48;;;;;;;35.80;19.00;;;3.70;99.90;;;;;;4977658;28;20129;-77
2021/01/05 09:39:18;;;;;;;34.38;20.30;;;3.70;99.90;;;;;;4977906;28;20111;-77
2021/01/05 09:41:47;;;;;;;35.92;20.13;;;3.70;99.90;;;;;;4976746;28;20133;-77
2021/01/05 09:44:14;;;;;;;36.67;20.25;;;3.70;99.90;;;;;;4978392;28;20061;-77
2021/01/05 09:46:41;;;;;;;35.85;19.67;;;3.80;99.90;;;;;;4978695;28;20098;-78
2021/01/05 09:49:12;;;;;;;35.63;20.10;;;3.70;99.90;;;;;;4978905;28;20423;-76
2021/01/05 09:51:38;;;;;;;38.38;21.05;;;3.70;99.90;;;;;;4979597;28;20116;-77
2021/01/05 09:54:05;;;;;;;35.67;19.73;;;3.70;99.90;;;;;;4981406;28;20070;-78
2021/01/05 09:56:31;;;;;;;40.40;20.70;;;3.70;99.90;;;;;;4984131;28;20046;-77
2021/01/05 09:58:59;;;;;;;34.58;19.40;;;3.80;99.90;;;;;;4980060;28;20085;-77
2021/01/05 10:01:30;;;;;;;35.13;19.33;;;3.80;99.90;;;;;;4980794;28;20082;-78
2021/01/05 10:03:56;;;;;;;35.97;19.02;;;3.90;99.90;;;;;;4979943;28;20145;-77
2021/01/05 10:06:28;;;;;;;38.60;19.92;;;3.90;99.90;;;;;;4979623;28;20050;-77
2021/01/05 10:08:54;;;;;;;38.40;19.98;;;3.90;99.90;;;;;;4979980;28;20050;-76
2021/01/05 10:11:21;;;;;;;37.85;20.90;;;3.90;99.90;;;;;;4981861;28;20074;-78
2021/01/05 10:13:47;;;;;;;36.53;21.17;;;4.00;99.90;;;;;;4981818;28;20530;-77
2021/01/05 10:16:15;;;;;;;38.65;20.42;;;4.00;99.90;;;;;;4983216;28;20638;-77
2021/01/05 10:18:41;;;;;;;35.47;20.58;;;4.10;99.90;;;;;;4982232;28;20081;-78
2021/01/05 10:21:08;;;;;;;40.65;21.23;;;4.10;99.90;;;;;;4981657;28;20134;-77
2021/01/05 10:23:34;;;;;;;38.15;20.63;;;4.10;99.90;;;;;;4984874;28;20081;-77
2021/01/05 10:26:00;;;;;;;42.00;21.30;;;4.20;99.90;;;;;;4983333;28;20054;-79
2021/01/05 10:28:27;;;;;;;38.80;20.55;;;4.20;99.90;;;;;;4984798;28;20066;-78
2021/01/05 10:30:54;;;;;;;34.45;19.65;;;4.30;99.90;;;;;;4983549;28;20169;-78
2021/01/05 10:33:21;;;;;;;35.35;20.33;;;4.30;99.90;;;;;;4982045;28;20125;-78
2021/01/05 10:35:48;;;;;;;43.10;22.60;;;4.40;99.90;;;;;;4979998;28;20066;-78
2021/01/05 10:38:14;;;;;;;36.33;21.15;;;4.30;99.90;;;;;;4981361;28;20145;-76
2021/01/05 10:40:41;;;;;;;41.30;22.45;;;4.40;99.90;;;;;;4982546;28;20089;-77
2021/01/05 10:43:07;;;;;;;39.47;21.70;;;4.40;99.90;;;;;;4981050;28;20090;-76
2021/01/05 10:45:33;;;;;;;39.15;21.77;;;4.30;99.90;;;;;;4982404;28;20043;-77
2021/01/05 10:48:00;;;;;;;43.25;21.83;;;4.30;99.90;;;;;;4993049;28;20078;-77
2021/01/05 10:50:27;;;;;;;122.53;56.05;;;4.30;99.90;;;;;;4995551;28;20055;-78
2021/01/05 10:52:53;;;;;;;42.40;24.25;;;4.30;99.90;;;;;;4994767;28;20038;-77
2021/01/05 10:55:21;;;;;;;43.47;23.40;;;4.10;99.90;;;;;;4994675;28;20109;-78
2021/01/05 10:57:49;;;;;;;44.22;27.45;;;4.00;99.90;;;;;;4977401;28;20055;-77
2021/01/05 11:00:17;;;;;;;52.88;27.83;;;3.90;99.90;;;;;;4996173;28;20126;-78
2021/01/05 11:02:44;;;;;;;47.10;25.40;;;3.90;99.90;;;;;;4988549;28;20081;-78
2021/01/05 11:05:13;;;;;;;37.67;20.48;;;4.00;99.90;;;;;;4984958;28;20097;-80
2021/01/05 11:07:41;;;;;;;40.13;21.20;;;4.00;99.90;;;;;;4983312;28;20050;-77
2021/01/05 11:10:13;;;;;;;38.35;21.73;;;4.00;99.90;;;;;;4983424;28;20077;-78
2021/01/05 11:12:40;;;;;;;41.42;21.67;;;4.10;99.90;;;;;;4981211;28;20050;-76
2021/01/05 11:15:12;;;;;;;39.13;22.27;;;4.10;99.90;;;;;;4985183;28;20074;-78
2021/01/05 11:17:39;;;;;;;41.40;21.55;;;4.20;99.90;;;;;;4986356;28;20499;-78
2021/01/05 11:20:06;;;;;;;44.58;21.30;;;4.20;99.90;;;;;;4982273;28;20047;-78
2021/01/05 11:22:33;;;;;;;43.20;22.40;;;4.20;99.90;;;;;;4979467;28;20074;-77
2021/01/05 11:25:00;;;;;;;40.13;21.88;;;4.20;99.90;;;;;;4981436;28;20085;-78
2021/01/05 11:27:27;;;;;;;39.80;21.90;;;4.20;99.90;;;;;;4987151;28;20090;-79
2021/01/05 11:29:53;;;;;;;40.85;20.63;;;4.20;99.90;;;;;;4991818;28;20070;-80
2021/01/05 11:32:19;;;;;;;41.97;21.48;;;4.10;99.90;;;;;;4990590;28;20082;-79
2021/01/05 11:34:46;;;;;;;34.25;19.27;;;4.00;99.90;;;;;;4987655;28;20062;-79
2021/01/05 11:37:15;;;;;;;44.60;22.00;;;3.90;99.90;;;;;;4977392;28;20097;-80
2021/01/05 11:39:46;;;;;;;41.03;21.65;;;4.00;99.90;;;;;;4990855;28;20150;-79
2021/01/05 11:42:15;;;;;;;39.60;20.65;;;3.90;99.90;;;;;;4979691;28;20057;-78
2021/01/05 11:44:44;;;;;;;41.38;21.33;;;4.00;99.90;;;;;;4977391;28;20443;-78
2021/01/05 11:47:11;;;;;;;41.83;22.65;;;3.90;99.90;;;;;;4978918;28;20463;-78
2021/01/05 11:49:37;;;;;;;43.92;22.33;;;3.90;99.90;;;;;;4977859;28;20053;-78
2021/01/05 11:52:04;;;;;;;40.78;20.77;;;3.90;99.90;;;;;;4974437;28;20078;-78
2021/01/05 11:54:31;;;;;;;41.88;22.48;;;3.90;99.90;;;;;;4974143;28;20043;-76
2021/01/05 11:56:59;;;;;;;46.28;23.48;;;3.80;99.90;;;;;;4980419;28;20064;-79
2021/01/05 11:59:26;;;;;;;43.53;23.95;;;3.90;99.90;;;;;;4990925;28;20081;-79
2021/01/05 12:01:53;;;;;;;43.55;21.88;;;3.90;99.90;;;;;;4990740;28;20046;-80
2021/01/05 12:04:20;;;;;;;44.30;21.58;;;3.90;99.90;;;;;;4987976;28;20051;-79
2021/01/05 12:06:47;;;;;;;40.15;22.23;;;4.00;99.90;;;;;;4986898;28;20085;-78
2021/01/05 12:09:14;;;;;;;45.22;22.90;;;3.90;99.90;;;;;;4976561;28;20078;-76
2021/01/05 12:11:41;;;;;;;42.78;22.65;;;3.90;99.90;;;;;;4976613;28;20480;-77
2021/01/05 12:14:07;;;;;;;44.80;22.02;;;4.00;99.90;;;;;;4978260;28;20142;-77
2021/01/05 12:16:37;;;;;;;46.05;23.85;;;3.90;99.90;;;;;;4975097;28;20047;-78
2021/01/05 12:19:05;;;;;;;42.60;21.85;;;3.90;99.90;;;;;;4976344;28;20205;-75
2021/01/05 12:21:33;;;;;;;44.42;23.45;;;3.80;99.90;;;;;;4973111;28;20085;-76
2021/01/05 12:24:00;;;;;;;43.67;22.77;;;3.80;99.90;;;;;;4977173;28;20117;-78
2021/01/05 12:26:29;;;;;;;41.47;22.60;;;3.80;99.90;;;;;;4972729;28;20134;-77
2021/01/05 12:28:57;;;;;;;45.35;24.33;;;3.80;99.90;;;;;;4974221;28;20253;-76
2021/01/05 12:31:24;;;;;;;45.15;23.05;;;3.90;99.90;;;;;;4971441;28;20054;-75
2021/01/05 12:33:52;;;;;;;49.28;24.60;;;3.90;99.90;;;;;;4980837;28;20053;-79
2021/01/05 12:36:29;;;;;;;48.50;25.15;;;3.70;99.90;;;;;;4989489;28;20047;-80
2021/01/05 12:38:57;;;;;;;44.35;21.65;;;3.70;99.90;;;;;;4984398;28;20043;-78
2021/01/05 12:41:29;;;;;;;45.85;23.05;;;3.60;99.90;;;;;;4976576;28;20102;-77
2021/01/05 12:43:56;;;;;;;44.38;23.00;;;3.60;99.90;;;;;;5031694;23;20069;-83
2021/01/05 12:46:29;;;;;;;43.53;22.33;;;3.60;99.90;;;;;;5010790;28;20112;-84
2021/01/05 12:49:00;;;;;;;42.95;22.00;;;3.70;99.90;;;;;;5013437;28;20054;-83
2021/01/05 12:51:27;;;;;;;44.35;23.08;;;3.80;99.90;;;;;;5014565;28;20042;-82
2021/01/05 12:53:57;;;;;;;43.75;23.20;;;3.70;99.90;;;;;;5015195;28;20109;-84
2021/01/05 12:56:24;;;;;;;43.50;22.70;;;3.70;99.90;;;;;;5013966;28;20053;-82